Time;durP1;ratioP1;P1;durP2;ratioP2;P2;SDS_P1;SDS_P2;PMS_P1;PMS_P2;Temp;Humidity;BMP_temperature;BMP_pressure;BME280_temperature;BME280_humidity;BME280_pressure;Samples;Min_cycle;Max_cycle;Signal;HPM_P1;HPM_P2
2022/02/08 00:02:07;;;;;;;8.52;2.05;;;11.00;99.80;;;;;;5069778;28;20492;-65
2022/02/08 00:04:34;;;;;;;4.22;1.50;;;11.00;98.80;;;;;;5039694;28;20389;-65
2022/02/08 00:07:03;;;;;;;6.60;1.70;;;11.10;98.80;;;;;;5072274;28;20045;-65
2022/02/08 00:09:31;;;;;;;4.82;1.70;;;11.10;98.80;;;;;;5068534;28;20396;-65
2022/02/08 00:11:59;;;;;;;8.10;1.83;;;11.10;98.70;;;;;;5073728;28;20052;-68
2022/02/08 00:14:26;;;;;;;7.80;2.08;;;11.10;98.70;;;;;;5066591;28;20048;-66
2022/02/08 00:16:53;;;;;;;5.13;1.90;;;11.10;98.80;;;;;;5070021;28;20049;-65
2022/02/08 00:19:20;;;;;;;4.82;1.92;;;11.10;98.70;;;;;;5052491;28;20041;-65
2022/02/08 00:21:47;;;;;;;9.07;2.38;;;11.00;98.80;;;;;;5059239;28;20059;-65
2022/02/08 00:24:14;;;;;;;6.45;1.88;;;11.00;98.80;;;;;;5064244;28;20119;-65
2022/02/08 00:26:41;;;;;;;7.38;2.42;;;11.00;99.00;;;;;;5037280;28;20049;-65
2022/02/08 00:29:08;;;;;;;9.05;1.83;;;11.10;98.90;;;;;;5049331;28;20045;-65
2022/02/08 00:31:35;;;;;;;7.05;2.13;;;11.00;99.10;;;;;;5053693;28;20053;-68
2022/02/08 00:34:02;;;;;;;8.32;2.50;;;11.00;99.40;;;;;;5070692;28;20059;-66
2022/02/08 00:36:29;;;;;;;4.68;1.58;;;11.00;99.30;;;;;;5062492;28;20079;-65
2022/02/08 00:38:56;;;;;;;5.50;1.80;;;11.00;99.40;;;;;;5068234;28;20492;-65
2022/02/08 00:41:25;;;;;;;6.95;1.63;;;11.00;99.20;;;;;;5053201;28;20045;-65
2022/02/08 00:44:03;;;;;;;7.30;2.47;;;10.90;99.90;;;;;;5071321;28;20060;-65
2022/02/08 00:46:44;;;;;;;5.07;1.50;;;11.00;99.40;;;;;;5070337;28;20087;-65
2022/02/08 00:49:12;;;;;;;6.82;1.80;;;10.90;99.40;;;;;;5064398;28;20045;-65
2022/02/08 00:51:43;;;;;;;7.30;1.60;;;10.90;99.80;;;;;;5047267;28;20049;-65
2022/02/08 00:54:11;;;;;;;6.53;1.85;;;11.00;99.90;;;;;;5061489;28;20053;-65
2022/02/08 00:56:38;;;;;;;7.03;2.17;;;10.90;99.50;;;;;;5052221;28;20480;-65
2022/02/08 00:59:07;;;;;;;5.03;1.42;;;10.90;99.90;;;;;;5058400;28;20045;-65
2022/02/08 01:01:37;;;;;;;7.53;1.70;;;10.90;99.90;;;;;;5048582;28;20063;-64
2022/02/08 01:04:08;;;;;;;4.70;1.58;;;11.00;99.40;;;;;;5053622;28;20135;-65
2022/02/08 01:06:35;;;;;;;7.05;2.00;;;11.00;99.80;;;;;;5052618;28;20511;-66
2022/02/08 01:09:13;;;;;;;5.75;1.40;;;11.00;99.90;;;;;;5062737;28;20496;-66
2022/02/08 01:11:42;;;;;;;5.35;1.88;;;10.90;99.90;;;;;;5065167;28;20045;-65
2022/02/08 01:14:09;;;;;;;6.90;1.98;;;11.00;99.90;;;;;;5057812;28;20423;-65
2022/02/08 01:16:36;;;;;;;6.30;1.30;;;10.90;99.90;;;;;;5059196;28;20052;-66
2022/02/08 01:19:04;;;;;;;3.75;1.77;;;11.00;99.90;;;;;;5052821;28;20404;-65
2022/02/08 01:21:32;;;;;;;5.60;1.55;;;11.00;99.90;;;;;;5059458;28;20041;-65
2022/02/08 01:23:59;;;;;;;5.43;1.42;;;11.00;99.90;;;;;;5061761;28;20488;-66
2022/02/08 01:26:27;;;;;;;6.25;1.70;;;11.00;99.90;;;;;;5057397;28;20053;-65
2022/02/08 01:29:40;;;;;;;6.32;2.00;;;11.00;99.90;;;;;;5053507;28;20079;-65
2022/02/08 01:31:46;;;;;;;7.35;1.88;;;11.00;99.90;;;;;;5052839;28;20122;-65
2022/02/08 01:34:25;;;;;;;4.53;1.17;;;11.00;99.80;;;;;;5052311;28;20442;-65
2022/02/08 01:37:07;;;;;;;6.45;1.63;;;11.00;99.80;;;;;;5068810;28;20496;-65
2022/02/08 01:39:44;;;;;;;7.10;1.75;;;11.00;99.50;;;;;;5059690;28;20048;-66
2022/02/08 01:45:06;;;;;;;5.50;1.23;;;11.00;99.20;;;;;;5059980;28;20052;-65
2022/02/08 01:47:48;;;;;;;4.63;1.45;;;11.00;98.80;;;;;;5042742;28;20057;-68
2022/02/08 01:50:16;;;;;;;6.63;1.48;;;11.00;98.80;;;;;;5041036;28;20049;-66
2022/02/08 01:52:43;;;;;;;4.40;1.20;;;11.00;98.90;;;;;;5047285;28;20049;-65
2022/02/08 01:55:11;;;;;;;4.28;1.85;;;11.00;98.90;;;;;;5048756;28;20049;-65
2022/02/08 01:57:38;;;;;;;4.75;1.05;;;11.00;98.70;;;;;;5064182;28;20510;-65
2022/02/08 02:00:07;;;;;;;4.35;1.10;;;11.00;98.60;;;;;;5054218;28;20048;-66
2022/02/08 02:02:33;;;;;;;5.55;1.63;;;11.00;98.60;;;;;;5054494;28;20079;-65
2022/02/08 02:05:01;;;;;;;7.88;2.30;;;11.00;98.80;;;;;;5035545;28;20052;-65
2022/02/08 02:07:28;;;;;;;6.90;1.60;;;11.00;99.00;;;;;;5033165;28;20041;-65
2022/02/08 02:10:01;;;;;;;5.63;1.60;;;11.00;98.70;;;;;;5028400;28;20440;-65
2022/02/08 02:12:28;;;;;;;3.60;1.30;;;11.00;99.00;;;;;;5036150;28;20483;-65
2022/02/08 02:14:58;;;;;;;7.25;1.77;;;11.00;98.70;;;;;;5053199;28;20048;-65
2022/02/08 02:17:25;;;;;;;3.15;1.40;;;11.00;98.60;;;;;;5056033;28;20040;-65
2022/02/08 02:19:52;;;;;;;8.32;1.80;;;11.00;98.90;;;;;;5057606;28;20048;-66
2022/02/08 02:22:19;;;;;;;4.68;1.55;;;11.00;98.70;;;;;;5051418;28;20045;-65
2022/02/08 02:25:40;;;;;;;5.25;1.20;;;11.00;99.00;;;;;;4991017;28;20058;-65
2022/02/08 02:28:25;;;;;;;3.13;1.67;;;11.00;99.40;;;;;;4975382;28;20041;-65
2022/02/08 02:30:53;;;;;;;4.68;2.17;;;11.00;99.30;;;;;;4975875;28;20042;-69
2022/02/08 02:33:20;;;;;;;5.25;1.15;;;11.00;99.50;;;;;;4989214;28;20167;-66
2022/02/08 02:35:47;;;;;;;5.68;1.58;;;11.00;99.30;;;;;;4990963;28;20050;-65
2022/02/08 02:38:14;;;;;;;3.40;1.30;;;11.00;99.30;;;;;;4984515;28;20108;-66
2022/02/08 02:40:44;;;;;;;5.05;2.03;;;11.00;99.20;;;;;;4996935;28;20510;-65
2022/02/08 02:43:11;;;;;;;;;;;11.00;98.90;;;;;;5040632;28;20466;-65
2022/02/08 02:45:38;;;;;;;2.35;1.23;;;11.00;99.30;;;;;;5056300;28;19944;-65
2022/02/08 02:48:05;;;;;;;3.65;1.55;;;11.00;98.80;;;;;;5055295;28;20045;-66
2022/02/08 02:50:32;;;;;;;2.78;1.30;;;11.00;98.80;;;;;;5054233;28;20102;-65
2022/02/08 02:52:59;;;;;;;5.88;1.52;;;11.00;99.20;;;;;;5057600;28;20049;-65
2022/02/08 02:55:31;;;;;;;3.03;1.15;;;11.00;99.70;;;;;;5061315;28;20049;-65
2022/02/08 02:57:58;;;;;;;5.93;1.98;;;11.00;99.10;;;;;;5067453;28;20045;-65
2022/02/08 03:01:02;;;;;;;4.80;1.23;;;11.00;99.50;;;;;;5051477;28;20052;-69
2022/02/08 03:03:32;;;;;;;117.90;96.25;;;11.00;99.30;;;;;;5067676;28;20056;-73
2022/02/08 03:19:27;;;;;;;3.58;1.30;;;11.00;99.70;;;;;;5065891;28;20040;-65
2022/02/08 03:21:55;;;;;;;5.15;1.40;;;11.00;99.90;;;;;;5061338;28;20044;-65
2022/02/08 03:24:22;;;;;;;7.32;1.40;;;10.90;99.60;;;;;;5055142;28;20079;-65
2022/02/08 03:26:48;;;;;;;5.78;1.83;;;10.90;99.80;;;;;;5056202;28;20488;-65
2022/02/08 03:29:15;;;;;;;6.15;1.50;;;10.90;99.90;;;;;;5036791;28;20045;-65
2022/02/08 03:31:42;;;;;;;3.90;1.17;;;11.00;99.90;;;;;;5035240;28;20049;-65
2022/02/08 03:34:10;;;;;;;5.88;1.30;;;10.90;99.90;;;;;;5062098;28;20454;-65
2022/02/08 03:36:37;;;;;;;9.82;1.70;;;10.90;99.90;;;;;;5071670;28;20098;-65
2022/02/08 03:39:17;;;;;;;5.35;1.60;;;10.90;99.80;;;;;;5064988;28;20045;-65
2022/02/08 03:41:48;;;;;;;5.57;1.80;;;10.90;99.90;;;;;;5053570;28;20053;-66
2022/02/08 03:44:18;;;;;;;4.30;1.70;;;10.90;99.90;;;;;;5063016;28;20053;-65
2022/02/08 03:46:46;;;;;;;4.80;2.10;;;10.90;99.50;;;;;;5058302;28;20049;-66
2022/02/08 03:49:12;;;;;;;6.00;1.50;;;10.90;99.30;;;;;;5067999;28;20488;-65
2022/02/08 03:51:57;;;;;;;5.45;1.20;;;11.00;99.50;;;;;;5037736;28;20041;-66
2022/02/08 03:54:24;;;;;;;5.20;1.80;;;11.00;99.20;;;;;;5037245;28;20045;-65
2022/02/08 03:56:51;;;;;;;2.70;1.35;;;11.00;99.00;;;;;;5054360;28;20480;-65
2022/02/08 03:59:18;;;;;;;7.22;1.40;;;11.00;98.70;;;;;;5038091;28;20099;-65
2022/02/08 04:06:50;;;;;;;4.50;1.70;;;11.00;98.20;;;;;;5067594;28;20048;-65
2022/02/08 04:09:18;;;;;;;6.90;1.70;;;11.00;98.30;;;;;;5070250;28;20053;-65
2022/02/08 04:12:08;;;;;;;6.30;1.42;;;11.00;98.00;;;;;;5071166;28;20060;-68
2022/02/08 04:18:00;;;;;;;3.65;1.40;;;11.00;98.00;;;;;;5052509;28;20049;-66
2022/02/08 04:41:49;;;;;;;6.43;1.30;;;11.10;95.70;;;;;;5066969;28;20063;-65
2022/02/08 04:46:53;;;;;;;3.75;1.60;;;11.10;95.40;;;;;;5060722;28;20373;-65
2022/02/08 04:49:20;;;;;;;5.75;2.10;;;11.10;95.30;;;;;;5062525;28;20507;-65
2022/02/08 04:51:52;;;;;;;5.78;1.65;;;11.10;95.00;;;;;;5058855;28;20114;-65
2022/02/08 04:54:27;;;;;;;8.95;1.52;;;11.10;94.80;;;;;;5060766;28;20114;-65
2022/02/08 04:59:36;;;;;;;5.40;1.38;;;11.10;94.80;;;;;;5054708;28;20041;-65
2022/02/08 05:26:32;;;;;;;5.70;1.65;;;11.00;94.60;;;;;;5054291;28;20037;-68
2022/02/08 05:40:39;;;;;;;4.93;1.67;;;11.00;94.30;;;;;;5052942;28;20045;-65
2022/02/08 05:40:52;;;;;;;6.65;1.73;;;11.00;94.40;;;;;;5061276;28;20057;-65
2022/02/08 05:43:48;;;;;;;5.20;1.88;;;11.00;94.40;;;;;;5071148;28;20161;-64
2022/02/08 05:46:47;;;;;;;12.07;1.90;;;11.00;94.10;;;;;;5046086;28;20511;-65
2022/02/08 05:49:04;;;;;;;5.95;1.55;;;11.00;94.10;;;;;;5054291;28;20044;-66
2022/02/08 05:54:20;;;;;;;10.98;1.88;;;11.00;94.10;;;;;;5049640;28;20102;-66
2022/02/08 05:56:52;;;;;;;5.85;1.70;;;11.00;94.10;;;;;;5052344;28;20049;-66
2022/02/08 05:59:20;;;;;;;6.20;1.50;;;11.10;94.10;;;;;;5057190;28;20045;-65
2022/02/08 06:01:47;;;;;;;5.45;2.00;;;11.10;93.70;;;;;;5032935;28;20076;-65
2022/02/08 06:04:14;;;;;;;10.30;2.67;;;11.10;93.90;;;;;;5051165;28;20059;-65
2022/02/08 06:06:41;;;;;;;4.53;1.55;;;11.10;93.70;;;;;;5052616;28;20045;-65
2022/02/08 06:09:09;;;;;;;6.20;1.77;;;11.10;93.80;;;;;;5052341;28;20066;-65
2022/02/08 06:11:37;;;;;;;5.90;1.83;;;11.10;93.80;;;;;;5053853;28;20059;-65
2022/02/08 06:14:05;;;;;;;6.88;1.90;;;11.10;93.90;;;;;;5055332;28;20445;-65
2022/02/08 06:16:32;;;;;;;4.38;1.58;;;11.10;93.40;;;;;;5060412;28;20040;-69
2022/02/08 06:18:59;;;;;;;4.53;1.50;;;11.10;93.30;;;;;;5050641;28;20045;-65
2022/02/08 06:21:26;;;;;;;4.50;2.00;;;11.00;93.20;;;;;;5063768;28;20052;-65
2022/02/08 06:23:53;;;;;;;4.25;1.10;;;11.10;93.30;;;;;;5059621;28;20056;-65
2022/02/08 06:26:22;;;;;;;6.60;2.40;;;11.10;93.20;;;;;;5069036;28;20060;-66
2022/02/08 06:29:00;;;;;;;7.40;1.50;;;11.10;93.20;;;;;;5038185;28;20562;-65
2022/02/08 06:31:27;;;;;;;21.45;14.18;;;11.00;93.10;;;;;;5040081;28;20344;-66
2022/02/08 06:33:53;;;;;;;8.90;2.88;;;11.10;93.40;;;;;;5059282;28;20185;-65
2022/02/08 06:36:20;;;;;;;4.43;1.45;;;11.10;92.90;;;;;;5063966;28;20040;-65
2022/02/08 06:38:47;;;;;;;6.40;1.77;;;11.10;93.40;;;;;;5067468;28;20489;-64
2022/02/08 06:41:14;;;;;;;4.28;1.90;;;11.10;93.40;;;;;;5071527;28;20048;-65
2022/02/08 06:43:41;;;;;;;6.78;2.17;;;11.10;92.90;;;;;;5074566;28;20052;-66
2022/02/08 06:46:08;;;;;;;3.95;2.15;;;11.10;92.90;;;;;;5062068;28;20050;-66
2022/02/08 06:48:35;;;;;;;5.45;1.40;;;11.10;93.00;;;;;;5050326;28;20077;-65
2022/02/08 06:51:02;;;;;;;5.28;1.30;;;11.10;92.90;;;;;;5056534;28;20060;-66
2022/02/08 06:53:29;;;;;;;26.65;19.08;;;11.10;92.80;;;;;;5060035;28;20041;-67
2022/02/08 06:55:57;;;;;;;157.98;120.40;;;11.10;92.90;;;;;;5065705;28;20048;-64
2022/02/08 06:58:30;;;;;;;17.58;10.73;;;11.10;93.10;;;;;;5060595;28;20049;-69
2022/02/08 07:01:02;;;;;;;8.82;3.85;;;11.10;93.40;;;;;;5053642;28;20111;-64
2022/02/08 07:03:30;;;;;;;6.63;3.25;;;11.10;92.80;;;;;;5058258;28;20059;-64
2022/02/08 07:05:57;;;;;;;5.05;2.35;;;11.00;93.00;;;;;;5046303;28;20056;-65
2022/02/08 07:08:24;;;;;;;5.63;1.50;;;10.90;93.20;;;;;;5056031;28;20041;-64
2022/02/08 07:10:51;;;;;;;6.22;1.50;;;10.90;93.50;;;;;;5049423;28;20049;-64
2022/02/08 07:13:18;;;;;;;3.03;1.33;;;10.90;93.50;;;;;;5057391;28;20052;-66
2022/02/08 07:15:45;;;;;;;62.00;43.17;;;10.90;93.70;;;;;;5063239;28;20095;-66
2022/02/08 07:18:12;;;;;;;16.58;7.78;;;10.90;93.90;;;;;;5055168;28;20052;-65
2022/02/08 07:20:40;;;;;;;6.10;2.58;;;10.90;94.10;;;;;;5056492;28;20064;-65
2022/02/08 07:23:07;;;;;;;3.20;1.55;;;10.80;94.10;;;;;;5069116;28;20131;-66
2022/02/08 07:25:34;;;;;;;6.60;2.08;;;10.70;94.20;;;;;;5066390;28;20045;-64
2022/02/08 07:28:02;;;;;;;5.13;1.85;;;10.70;94.20;;;;;;5072985;28;20048;-66
2022/02/08 07:30:31;;;;;;;4.32;1.60;;;10.70;94.50;;;;;;5053180;28;20094;-64
2022/02/08 07:32:58;;;;;;;;;;;10.60;94.70;;;;;;5051240;28;20128;-67
2022/02/08 07:43:01;;;;;;;7.97;2.33;;;10.50;95.70;;;;;;5051190;28;20091;-64
2022/02/08 07:45:28;;;;;;;5.68;2.03;;;10.50;95.70;;;;;;5060021;28;20045;-68
2022/02/08 07:47:55;;;;;;;2.55;1.30;;;10.40;95.90;;;;;;5035141;28;20048;-69
2022/02/08 07:50:24;;;;;;;3.35;1.20;;;10.50;96.10;;;;;;5042468;28;20150;-64
2022/02/08 07:52:52;;;;;;;7.20;2.03;;;10.50;95.70;;;;;;5056899;28;20048;-65
2022/02/08 07:55:19;;;;;;;4.18;1.42;;;10.50;96.20;;;;;;5053231;28;20048;-65
2022/02/08 07:57:46;;;;;;;6.88;1.80;;;10.50;96.00;;;;;;5050396;28;20052;-64
2022/02/08 08:00:15;;;;;;;4.90;1.67;;;10.50;96.00;;;;;;5041702;28;20080;-65
2022/02/08 08:02:43;;;;;;;6.65;2.40;;;10.50;95.90;;;;;;5054391;28;20056;-63
2022/02/08 08:05:10;;;;;;;6.18;2.40;;;10.50;95.90;;;;;;5069057;28;20053;-65
2022/02/08 08:07:37;;;;;;;6.78;1.80;;;10.60;95.70;;;;;;5043584;28;20045;-68
2022/02/08 08:10:06;;;;;;;3.72;1.27;;;10.60;95.70;;;;;;5046032;28;20071;-67
2022/02/08 08:12:36;;;;;;;7.18;3.10;;;10.70;95.30;;;;;;5049151;28;20128;-67
2022/02/08 08:15:13;;;;;;;7.63;2.97;;;10.70;95.40;;;;;;5071315;28;20098;-69
2022/02/08 08:17:57;;;;;;;7.47;2.65;;;10.70;95.40;;;;;;5049682;28;20077;-69
2022/02/08 08:20:24;;;;;;;6.50;2.90;;;10.70;95.60;;;;;;5055667;28;20403;-68
2022/02/08 08:22:51;;;;;;;6.57;3.35;;;10.70;95.60;;;;;;5063521;28;20049;-67
2022/02/08 08:25:18;;;;;;;8.73;4.75;;;10.80;95.30;;;;;;5059491;28;20041;-68
2022/02/08 08:27:45;;;;;;;17.48;5.20;;;10.80;94.90;;;;;;5060824;28;20045;-68
2022/02/08 08:30:15;;;;;;;7.10;3.75;;;10.90;94.90;;;;;;5059182;28;20460;-64
2022/02/08 08:32:42;;;;;;;14.88;4.97;;;10.90;94.60;;;;;;5063566;28;20569;-64
2022/02/08 08:35:11;;;;;;;42.58;26.20;;;10.90;94.00;;;;;;5031706;28;20045;-65
2022/02/08 08:37:43;;;;;;;100.95;71.30;;;11.00;94.50;;;;;;5034192;28;20053;-63
2022/02/08 08:40:59;;;;;;;12.60;7.78;;;11.10;94.00;;;;;;5035911;28;20045;-73
2022/02/08 08:51:31;;;;;;;5.47;2.15;;;11.40;93.00;;;;;;5058246;28;20044;-69
2022/02/08 08:53:58;;;;;;;7.05;2.72;;;11.50;92.90;;;;;;5044950;28;20041;-65
2022/02/08 08:56:25;;;;;;;4.15;1.63;;;11.50;93.00;;;;;;5051407;28;20053;-67
2022/02/08 08:58:52;;;;;;;3.90;1.90;;;11.50;92.50;;;;;;5053676;28;20048;-69
2022/02/08 09:01:18;;;;;;;3.88;1.60;;;11.60;92.90;;;;;;5049667;28;21863;-65
2022/02/08 09:03:47;;;;;;;6.15;2.30;;;11.60;92.50;;;;;;5048130;28;20083;-65
2022/02/08 09:06:20;;;;;;;3.88;1.50;;;11.60;92.20;;;;;;5042413;28;20124;-64
2022/02/08 09:08:47;;;;;;;8.43;2.60;;;11.70;92.20;;;;;;5048797;28;20048;-65
2022/02/08 09:16:26;;;;;;;4.35;1.73;;;11.80;92.00;;;;;;5051331;28;20045;-65
2022/02/08 09:32:27;;;;;;;7.45;3.70;;;12.00;91.20;;;;;;5055068;28;20475;-65
2022/02/08 09:34:56;;;;;;;8.38;3.35;;;12.00;90.80;;;;;;5057318;28;20052;-69
2022/02/08 09:37:24;;;;;;;6.80;3.10;;;12.10;91.20;;;;;;5042128;28;20132;-67
2022/02/08 09:39:51;;;;;;;5.93;2.28;;;12.10;91.10;;;;;;5040589;28;20052;-70
2022/02/08 09:42:19;;;;;;;10.32;3.47;;;12.10;91.10;;;;;;5057450;28;20060;-65
2022/02/08 09:44:46;;;;;;;9.52;3.58;;;12.20;90.40;;;;;;5061768;28;20064;-64
2022/02/08 09:47:17;;;;;;;6.10;2.83;;;12.20;91.30;;;;;;5060948;28;20045;-66
2022/02/08 09:49:52;;;;;;;9.88;3.88;;;12.20;90.60;;;;;;5015170;28;20049;-68
2022/02/08 09:52:21;;;;;;;10.05;3.08;;;12.10;90.80;;;;;;5059343;28;20078;-67
2022/02/08 09:54:49;;;;;;;6.00;1.70;;;12.10;90.70;;;;;;5050302;28;20084;-65
2022/02/08 09:57:16;;;;;;;5.93;1.73;;;12.00;90.80;;;;;;5058240;28;20048;-67
2022/02/08 09:59:43;;;;;;;4.30;2.50;;;12.00;91.00;;;;;;5048596;28;20055;-67
2022/02/08 10:02:10;;;;;;;9.20;4.20;;;11.90;90.80;;;;;;5045612;28;20055;-65
2022/02/08 10:04:37;;;;;;;8.00;2.92;;;11.90;91.10;;;;;;5051975;28;20053;-66
2022/02/08 10:07:11;;;;;;;8.95;3.75;;;11.80;90.80;;;;;;5030193;28;20050;-69
2022/02/08 10:09:38;;;;;;;12.68;5.15;;;11.80;91.00;;;;;;5060802;28;20045;-65
2022/02/08 10:12:06;;;;;;;10.70;5.13;;;11.70;91.40;;;;;;5040127;28;20049;-66
2022/02/08 10:22:51;;;;;;;8.15;2.88;;;11.60;92.70;;;;;;5053819;28;20055;-65
2022/02/08 10:28:30;;;;;;;8.05;2.17;;;11.60;93.10;;;;;;5053300;28;20059;-67
2022/02/08 10:39:24;;;;;;;8.77;3.10;;;11.60;93.10;;;;;;5044385;28;20053;-66
2022/02/08 10:41:53;;;;;;;5.53;1.52;;;11.60;93.10;;;;;;5046354;28;20098;-67
2022/02/08 10:44:20;;;;;;;4.15;1.40;;;11.80;92.70;;;;;;5050170;28;20158;-69
2022/02/08 10:46:57;;;;;;;5.90;1.42;;;11.90;92.50;;;;;;5049837;28;20041;-68
2022/02/08 10:49:24;;;;;;;6.72;1.75;;;12.10;92.60;;;;;;5056702;28;20041;-68
2022/02/08 10:51:54;;;;;;;3.72;1.90;;;12.20;91.90;;;;;;5050593;28;20138;-71
2022/02/08 10:54:33;;;;;;;4.43;1.50;;;12.30;91.90;;;;;;5051391;28;20766;-67
2022/02/08 10:57:07;;;;;;;5.05;1.40;;;12.40;91.20;;;;;;5055628;28;20045;-69
2022/02/08 10:59:59;;;;;;;5.13;1.48;;;12.50;90.60;;;;;;5063177;28;20053;-69
2022/02/08 11:02:30;;;;;;;5.55;1.67;;;12.60;90.80;;;;;;5058044;28;20106;-77
2022/02/08 11:05:14;;;;;;;4.15;1.63;;;12.70;90.50;;;;;;5042195;28;20485;-68
2022/02/08 11:08:02;;;;;;;5.75;1.55;;;12.70;90.50;;;;;;5058313;28;20822;-69
2022/02/08 11:16:16;;;;;;;3.88;1.27;;;13.00;88.30;;;;;;5049871;28;20542;-74
2022/02/08 11:19:49;;;;;;;4.90;1.50;;;13.00;88.00;;;;;;5038122;28;20044;-69
2022/02/08 11:21:50;;;;;;;3.75;1.20;;;13.00;88.60;;;;;;5022025;28;20048;-71
2022/02/08 11:24:39;;;;;;;4.57;1.42;;;13.00;88.20;;;;;;5037065;28;20065;-65
2022/02/08 11:27:13;;;;;;;6.90;2.10;;;13.10;87.80;;;;;;5057831;28;20049;-66
2022/02/08 11:29:59;;;;;;;3.35;1.85;;;13.10;88.30;;;;;;5062715;28;20045;-65
2022/02/08 11:32:46;;;;;;;4.13;1.52;;;13.20;87.40;;;;;;5053498;28;20053;-66
2022/02/08 12:05:15;;;;;;;3.92;1.63;;;13.50;85.40;;;;;;5072036;28;20049;-67
2022/02/08 12:07:46;;;;;;;4.35;1.38;;;13.40;86.40;;;;;;5054454;28;20047;-66
2022/02/08 12:10:36;;;;;;;3.97;1.52;;;13.30;86.20;;;;;;5053972;28;20052;-64
2022/02/08 14:07:44;;;;;;;3.90;1.55;;;13.40;83.40;;;;;;5050827;28;20095;-70
2022/02/08 14:10:30;;;;;;;2.53;1.33;;;13.40;83.50;;;;;;5050991;28;20052;-65
2022/02/08 14:15:34;;;;;;;5.45;2.75;;;13.30;84.40;;;;;;5050299;28;20049;-66
2022/02/08 14:18:12;;;;;;;3.60;1.73;;;13.40;83.40;;;;;;5050696;28;20056;-66
2022/02/08 14:34:38;;;;;;;4.28;1.80;;;13.30;84.30;;;;;;5050424;28;20504;-70
2022/02/08 15:07:53;;;;;;;2.95;1.80;;;13.20;84.70;;;;;;5053539;28;20054;-67
2022/02/08 15:10:06;;;;;;;2.97;1.40;;;13.20;84.50;;;;;;5053335;28;20049;-67
2022/02/08 15:12:40;;;;;;;2.53;1.25;;;13.10;84.90;;;;;;5045203;28;20048;-66
2022/02/08 15:15:19;;;;;;;4.18;1.08;;;13.10;84.00;;;;;;5072327;28;20052;-69
2022/02/08 15:17:46;;;;;;;3.38;1.35;;;13.10;84.30;;;;;;5038718;28;20102;-65
2022/02/08 15:20:13;;;;;;;8.30;1.38;;;13.10;85.00;;;;;;5053397;28;20053;-68
2022/02/08 15:22:40;;;;;;;2.72;1.27;;;13.10;85.80;;;;;;5064993;28;20053;-68
2022/02/08 15:25:12;;;;;;;5.93;1.88;;;13.10;85.20;;;;;;5067780;28;20148;-69
2022/02/08 15:27:40;;;;;;;3.70;1.65;;;13.00;84.40;;;;;;5037079;28;20611;-74
2022/02/08 15:30:09;;;;;;;4.47;1.40;;;13.00;84.60;;;;;;5056750;28;20492;-64
2022/02/08 15:32:40;;;;;;;3.95;1.35;;;13.00;85.20;;;;;;5064421;28;20079;-71
2022/02/08 15:35:07;;;;;;;284.10;252.85;;;13.00;85.50;;;;;;5058563;28;20048;-66
2022/02/08 15:37:35;;;;;;;15.60;12.93;;;13.00;85.50;;;;;;5052833;28;20480;-68
2022/02/08 15:40:04;;;;;;;8.27;6.00;;;13.10;85.80;;;;;;5039760;28;20488;-68
2022/02/08 15:42:32;;;;;;;4.82;2.67;;;13.00;85.40;;;;;;5054178;28;20045;-65
2022/02/08 15:45:08;;;;;;;3.40;1.67;;;13.00;85.60;;;;;;5052703;28;20053;-76
2022/02/08 15:47:35;;;;;;;3.65;1.80;;;12.90;85.80;;;;;;5053009;28;20057;-66
2022/02/08 15:50:09;;;;;;;4.40;1.45;;;12.90;85.90;;;;;;5054132;28;20171;-65
2022/02/08 15:55:34;;;;;;;4.72;1.52;;;12.80;86.00;;;;;;5051933;28;20048;-68
2022/02/08 15:58:07;;;;;;;3.55;1.33;;;12.80;87.10;;;;;;5033917;28;20055;-69
2022/02/08 16:08:28;;;;;;;3.90;1.50;;;12.70;86.30;;;;;;5065084;28;20120;-66
2022/02/08 16:29:22;;;;;;;6.45;1.45;;;12.70;87.50;;;;;;5051127;28;20057;-73
2022/02/08 16:55:14;;;;;;;1.88;1.10;;;12.50;87.70;;;;;;5043746;28;20046;-69
2022/02/08 16:59:28;;;;;;;2.42;1.17;;;12.30;87.50;;;;;;5057112;28;20056;-72
2022/02/08 17:02:01;;;;;;;4.85;1.30;;;12.40;88.00;;;;;;5056649;28;20052;-67
2022/02/08 17:04:29;;;;;;;4.15;1.63;;;12.40;88.00;;;;;;5035313;28;20546;-66
2022/02/08 17:06:56;;;;;;;6.03;2.92;;;12.30;87.70;;;;;;5060051;28;20047;-65
2022/02/08 17:09:43;;;;;;;6.88;2.38;;;12.30;88.00;;;;;;5036678;28;20046;-66
2022/02/08 17:15:07;;;;;;;3.58;1.23;;;12.30;87.80;;;;;;5068555;28;20048;-67
2022/02/08 17:47:43;;;;;;;5.93;1.42;;;12.10;89.30;;;;;;5047472;28;20056;-62
2022/02/08 17:50:13;;;;;;;6.97;2.03;;;12.00;88.50;;;;;;5034112;28;20049;-63
2022/02/08 17:52:41;;;;;;;3.90;1.60;;;12.00;88.90;;;;;;5035618;28;20103;-64
2022/02/08 17:55:09;;;;;;;4.03;1.70;;;12.00;88.70;;;;;;5035846;28;20068;-64
2022/02/08 17:57:36;;;;;;;8.20;2.20;;;12.00;89.20;;;;;;5050460;28;20103;-65
2022/02/08 18:00:08;;;;;;;6.20;2.75;;;12.00;88.70;;;;;;5038912;28;20049;-70
2022/02/08 18:02:35;;;;;;;86.80;52.17;;;12.00;88.30;;;;;;5052458;28;20049;-63
2022/02/08 18:05:02;;;;;;;6.75;4.72;;;12.00;88.20;;;;;;5035465;28;20056;-63
2022/02/08 18:07:30;;;;;;;6.07;3.20;;;12.00;89.60;;;;;;5046776;28;20052;-63
2022/02/08 18:09:56;;;;;;;6.78;2.03;;;12.00;87.80;;;;;;5070823;28;20045;-63
2022/02/08 18:12:26;;;;;;;5.50;2.42;;;12.00;88.10;;;;;;5070145;28;20048;-63
2022/02/08 18:14:59;;;;;;;5.53;2.00;;;12.00;87.10;;;;;;5070549;28;20059;-63
2022/02/08 18:17:33;;;;;;;4.88;2.17;;;12.00;87.20;;;;;;5072378;28;20052;-63
2022/02/08 19:22:19;;;;;;;7.97;3.42;;;11.50;95.20;;;;;;5053897;28;20045;-66
2022/02/08 19:24:46;;;;;;;7.85;3.20;;;11.50;95.30;;;;;;5056169;28;20045;-65
2022/02/08 19:27:16;;;;;;;6.78;3.28;;;11.60;95.50;;;;;;5045804;28;20044;-65
2022/02/08 19:29:43;;;;;;;7.35;2.97;;;11.60;95.70;;;;;;5065671;28;20041;-65
2022/02/08 19:32:10;;;;;;;11.25;4.55;;;11.50;95.70;;;;;;5054219;28;20048;-68
2022/02/08 19:34:39;;;;;;;7.15;3.28;;;11.60;95.50;;;;;;5044113;28;20049;-66
2022/02/08 19:37:07;;;;;;;6.00;2.90;;;11.60;95.40;;;;;;5071933;28;20056;-64
2022/02/08 19:39:35;;;;;;;9.35;3.10;;;11.50;95.30;;;;;;5064638;28;20037;-63
2022/02/08 19:42:03;;;;;;;7.90;2.60;;;11.50;95.40;;;;;;5064609;28;20055;-67
2022/02/08 19:44:35;;;;;;;4.97;2.80;;;11.50;95.60;;;;;;5071366;28;20091;-65
2022/02/08 19:47:03;;;;;;;8.18;3.53;;;11.50;95.60;;;;;;5055752;28;20056;-64
2022/02/08 19:49:30;;;;;;;5.00;2.60;;;11.50;96.20;;;;;;5054879;28;20049;-65
2022/02/08 19:51:58;;;;;;;8.45;2.95;;;11.50;95.90;;;;;;5053614;28;20048;-64
2022/02/08 19:54:29;;;;;;;5.28;2.60;;;11.50;96.00;;;;;;5038513;28;20536;-65
2022/02/08 19:59:36;;;;;;;6.32;2.83;;;11.50;96.00;;;;;;5045817;28;20048;-65
2022/02/08 20:02:06;;;;;;;6.07;2.90;;;11.50;96.00;;;;;;5051731;28;20480;-64
2022/02/08 20:04:34;;;;;;;7.00;3.22;;;11.40;96.20;;;;;;5055708;28;20412;-64
2022/02/08 20:07:02;;;;;;;7.95;2.45;;;11.40;96.60;;;;;;5072041;28;20488;-64
2022/02/08 20:09:29;;;;;;;7.88;3.03;;;11.40;97.20;;;;;;5038490;28;20400;-63
2022/02/08 20:12:16;;;;;;;8.38;2.95;;;11.30;97.50;;;;;;5066807;28;20399;-63
2022/02/08 20:14:50;;;;;;;9.70;3.17;;;11.30;97.80;;;;;;5039055;28;20041;-64
2022/02/08 20:17:17;;;;;;;5.20;2.75;;;11.20;98.30;;;;;;5066996;28;20070;-73
2022/02/08 20:19:45;;;;;;;6.90;3.03;;;11.20;98.40;;;;;;5070333;28;20067;-64
2022/02/08 20:22:14;;;;;;;6.13;2.90;;;11.20;99.00;;;;;;5071109;28;20557;-64
2022/02/08 20:24:41;;;;;;;7.35;3.08;;;11.20;99.20;;;;;;5057372;28;20051;-64
2022/02/08 20:29:56;;;;;;;6.95;3.00;;;11.20;98.80;;;;;;5055638;28;20496;-65
2022/02/08 20:32:23;;;;;;;7.75;3.08;;;11.20;99.50;;;;;;5051557;28;20441;-64
2022/02/08 20:34:50;;;;;;;112.82;77.03;;;11.10;99.60;;;;;;5053143;28;20413;-68
2022/02/08 20:37:17;;;;;;;31.35;17.80;;;11.10;99.90;;;;;;5050029;28;20053;-68
2022/02/08 20:39:44;;;;;;;8.75;4.03;;;11.10;99.90;;;;;;5060160;28;20353;-64
2022/02/08 20:42:11;;;;;;;5.93;4.25;;;11.10;99.90;;;;;;5061435;28;20055;-64
2022/02/08 20:44:43;;;;;;;6.93;3.65;;;11.00;99.90;;;;;;5064371;28;20087;-65
2022/02/08 20:47:25;;;;;;;8.57;3.65;;;11.00;99.90;;;;;;5049907;28;20484;-64
2022/02/08 20:50:16;;;;;;;8.48;3.28;;;11.00;99.90;;;;;;5059716;28;20037;-67
2022/02/08 20:52:49;;;;;;;6.72;2.67;;;11.00;99.90;;;;;;5060494;28;20504;-64
2022/02/08 20:55:18;;;;;;;5.25;2.30;;;10.90;99.90;;;;;;5051663;28;20472;-64
2022/02/08 20:57:52;;;;;;;8.38;3.75;;;10.90;99.90;;;;;;5050771;28;20056;-64
2022/02/08 21:00:19;;;;;;;3.90;2.10;;;10.80;99.90;;;;;;5053423;28;20049;-65
2022/02/08 21:03:11;;;;;;;5.50;2.50;;;10.80;99.90;;;;;;5051691;28;20056;-64
2022/02/08 21:05:48;;;;;;;6.28;2.28;;;10.80;99.90;;;;;;5049641;28;20067;-65
2022/02/08 21:08:15;;;;;;;5.30;2.15;;;10.80;99.90;;;;;;5057606;28;20045;-64
2022/02/08 21:10:47;;;;;;;5.47;2.05;;;10.80;99.90;;;;;;5050876;28;20049;-65
2022/02/08 21:13:17;;;;;;;7.50;2.33;;;10.90;99.90;;;;;;5055628;28;20051;-64
2022/02/08 21:15:44;;;;;;;6.68;2.28;;;10.90;99.90;;;;;;5066615;28;20036;-66
2022/02/08 21:18:11;;;;;;;7.75;3.00;;;10.80;99.90;;;;;;5068137;28;20052;-64